Flight Track Log - Related Links

Times and Time Zones

All times are in EDT time to prevent confusion due to time zone crossing. See the N9577Y flight status page for this flight to view local times or setup timezone preferences in your user account.


Time Position Orientation Groundspeed Altitude Reporting Facility
EDT Latitude Longitude Course Direction KTS MPH feet Rate Location/Type
Sun 05:44:22 PM 27.9167 -82.3500 41° Northeast 105 121 2,400  Level Tampa TRACON
Sun 05:45:04 PM 27.9333 -82.3333 41° Northeast 103 119 2,900 563 Climbing Tampa TRACON
Sun 05:45:58 PM 27.9500 -82.3167 41° Northeast 113 130 3,300 474 Climbing Tampa TRACON
Sun 05:46:58 PM 27.9833 -82.3167 360° North 123 142 3,800 397 Climbing Tampa TRACON
Sun 05:47:59 PM 28.0167 -82.3000 24° Northeast 127 146 4,100 95 Climbing Tampa TRACON
Sun 05:49:04 PM 28.0667 -82.2833 16° North 158 182 4,000 -48 Descending Tampa TRACON
Sun 05:50:05 PM 28.1167 -82.2667 16° North 163 188 4,000  Level Tampa TRACON
Sun 05:51:05 PM 28.1500 -82.2500 24° Northeast 159 183 4,000 100 Level Tampa TRACON
Sun 05:52:05 PM 28.2000 -82.2500 360° North 151 174 4,200 350 Climbing Tampa TRACON
Sun 05:53:05 PM 28.2333 -82.2500 360° North 136 157 4,700 500 Climbing Tampa TRACON
Sun 05:54:05 PM 28.2667 -82.2667 336° Northwest 136 157 5,200 526 Climbing Tampa TRACON
Sun 05:54:59 PM 28.3000 -82.2833 336° Northwest 133 153 5,700 400 Climbing Tampa TRACON
Sun 05:56:05 PM 28.3333 -82.3167 319° Northwest 136 157 6,000 150 Climbing Tampa TRACON
Sun 05:56:59 PM 28.3667 -82.3333 336° Northwest 158 182 6,000 -56 Level Tampa TRACON
Sun 05:57:53 PM 28.4000 -82.3667 319° Northwest 165 190 5,900 100 Descending Tampa TRACON
Sun 05:58:59 PM 28.4333 -82.4000 319° Northwest 164 189 6,200 350 Climbing Tampa TRACON
Sun 05:59:53 PM 28.4667 -82.4333 319° Northwest 145 167 6,600 368 Climbing Tampa TRACON
Sun 06:00:53 PM 28.5000 -82.4500 336° Northwest 136 157 6,900 333 Climbing Tampa TRACON
Sun 06:01:59 PM 28.5333 -82.4833 319° Northwest 132 152 7,300 455 Climbing Tampa TRACON
Sun 06:03:05 PM 28.5500 -82.5000 319° Northwest 129 148 7,900 545 Climbing Tampa TRACON
Sun 06:04:00 PM 28.5833 -82.5333 319° Northwest 125 144 8,400 589 Climbing Tampa TRACON
Sun 06:04:57 PM 28.6086 -82.5567 321° Northwest 125 144 9,000 564 Climbing Jacksonville Center
Sun 06:05:57 PM 28.6317 -82.5781 321° Northwest 186 214 9,500 500 Climbing Jacksonville Center
Sun 06:06:57 PM 28.6567 -82.6064 315° West 152 175 10,000 550 Climbing Jacksonville Center
Sun 06:07:57 PM 28.6672 -82.6417 289° West 125 144 10,600 500 Climbing Jacksonville Center
Sun 06:08:57 PM 28.6944 -82.6678 320° Northwest 118 136 11,000 450 Climbing Jacksonville Center
Sun 06:09:57 PM 28.7194 -82.6983 313° West 123 142 11,500 550 Climbing Jacksonville Center
Sun 06:10:57 PM 28.7444 -82.7269 315° West 129 148 12,100 1,250 Climbing Jacksonville Center
Sun 06:11:57 PM 28.7697 -82.7553 316° Northwest 129 148 14,000 500 Climbing Jacksonville Center
Sun 06:12:57 PM 28.7969 -82.7836 318° Northwest 129 148 13,100 -250 Descending Jacksonville Center
Sun 06:13:57 PM 28.8239 -82.8119 317° Northwest 134 154 13,500 450 Climbing Jacksonville Center
Sun 06:14:57 PM 28.8533 -82.8403 320° Northwest 134 154 14,000 250 Climbing Jacksonville Center
Sun 06:15:57 PM 28.8803 -82.8736 313° West 141 162 14,000  Level Jacksonville Center
Sun 06:16:57 PM 28.9117 -82.9092 315° West 147 169 14,000  Level Jacksonville Center
Sun 06:17:57 PM 28.9472 -82.9472 317° Northwest 158 182 14,000  Level Jacksonville Center
Sun 06:18:57 PM 28.9806 -82.9875 313° West 168 193 14,000  Level Jacksonville Center
Sun 06:19:57 PM 29.0222 -83.0231 323° Northwest 173 199 14,000  Level Jacksonville Center
Sun 06:20:57 PM 29.0597 -83.0611 318° Northwest 178 205 14,000  Level Jacksonville Center
Sun 06:21:57 PM 29.0953 -83.0994 317° Northwest 178 205 14,000  Level Jacksonville Center
Sun 06:22:57 PM 29.1306 -83.1422 313° West 178 205 14,000  Level Jacksonville Center
Sun 06:23:57 PM 29.1639 -83.1828 313° West 172 198 14,000  Level Jacksonville Center
Sun 06:24:57 PM 29.2014 -83.2233 317° Northwest 172 198 14,000  Level Jacksonville Center
Sun 06:25:57 PM 29.2347 -83.2639 313° West 172 198 14,000  Level Jacksonville Center
Sun 06:26:57 PM 29.2700 -83.3019 317° Northwest 172 198 14,000  Level Jacksonville Center
Sun 06:27:57 PM 29.3053 -83.3403 317° Northwest 172 198 14,000  Level Jacksonville Center
Sun 06:28:57 PM 29.3428 -83.3808 317° Northwest 172 198 14,000  Level Jacksonville Center
Sun 06:29:57 PM 29.3781 -83.4144 320° Northwest 172 198 14,000  Level Jacksonville Center
Sun 06:30:57 PM 29.4136 -83.4506 319° Northwest 167 192 14,000  Level Jacksonville Center
Sun 06:31:57 PM 29.4322 -83.4958 295° West 167 192 14,000  Level Jacksonville Center
Sun 06:32:57 PM 29.4381 -83.5436 278° West 156 180 14,000  Level Jacksonville Center
Sun 06:33:57 PM 29.4544 -83.5914 292° West 156 180 14,000  Level Jacksonville Center
Sun 06:34:57 PM 29.4731 -83.6392 294° West 156 180 14,000  Level Jacksonville Center
Sun 06:35:57 PM 29.4917 -83.6847 295° West 162 186 14,000 -50 Level Jacksonville Center
Sun 06:36:57 PM 29.5100 -83.7325 294° West 167 192 13,900  Descending Jacksonville Center
Sun 06:37:57 PM 29.5264 -83.7806 291° West 167 192 14,000 -50 Climbing Jacksonville Center
Sun 06:38:57 PM 29.5367 -83.8283 284° West 162 186 13,800 -100 Descending Jacksonville Center
Sun 06:39:57 PM 29.5467 -83.8761 284° West 162 186 13,800 150 Level Jacksonville Center
Sun 06:40:57 PM 29.5589 -83.9264 286° West 162 186 14,100 150 Climbing Jacksonville Center
Sun 06:41:57 PM 29.5689 -83.9742 284° West 162 186 14,100 -50 Level Jacksonville Center
Sun 06:42:57 PM 29.5831 -84.0244 288° West 162 186 14,000 -100 Descending Jacksonville Center
Sun 06:43:57 PM 29.5908 -84.0747 280° West 162 186 13,900  Descending Jacksonville Center
Sun 06:44:57 PM 29.6114 -84.1228 296° West 162 186 14,000 100 Climbing Jacksonville Center
Sun 06:45:57 PM 29.6192 -84.1708 281° West 162 186 14,100 50 Climbing Jacksonville Center
Sun 06:46:57 PM 29.6269 -84.2211 280° West 162 186 14,100 -50 Level Jacksonville Center
Sun 06:47:57 PM 29.6347 -84.2714 280° West 162 186 14,000  Descending Jacksonville Center
Sun 06:48:57 PM 29.6428 -84.3167 282° West 157 181 14,100 -50 Climbing Jacksonville Center
Sun 06:49:57 PM 29.6506 -84.3600 282° West 151 174 13,900 -50 Descending Jacksonville Center
Sun 06:50:57 PM 29.6625 -84.4078 286° West 151 174 14,000 50 Climbing Jacksonville Center
Sun 06:51:57 PM 29.6683 -84.4511 279° West 151 174 14,000  Level Jacksonville Center
Sun 06:52:57 PM 29.6781 -84.4942 285° West 146 168 14,000  Level Jacksonville Center
Sun 06:53:57 PM 29.6900 -84.5422 286° West 146 168 14,000  Level Jacksonville Center
Sun 06:54:57 PM 29.7019 -84.5856 288° West 146 168 14,000 -50 Level Jacksonville Center
Sun 06:55:57 PM 29.7139 -84.6286 288° West 146 168 13,900  Descending Jacksonville Center
Sun 06:56:57 PM 29.7281 -84.6719 291° West 146 168 14,000 50 Climbing Jacksonville Center
Sun 06:57:57 PM 29.7419 -84.7225 288° West 151 174 14,000 -50 Level Jacksonville Center
Sun 06:58:57 PM 29.7539 -84.7681 287° West 151 174 13,900  Descending Jacksonville Center
Sun 06:59:57 PM 29.7656 -84.8161 286° West 151 174 14,000 100 Climbing Jacksonville Center
Sun 07:00:57 PM 29.7775 -84.8619 287° West 151 174 14,100 400 Climbing Jacksonville Center
Sun 07:01:57 PM 29.7914 -84.9006 293° West 141 162 14,800 100 Climbing Jacksonville Center
Sun 07:02:57 PM 29.8053 -84.9439 290° West 141 162 14,300 -450 Descending Jacksonville Center
Sun 07:03:57 PM 29.8211 -84.9944 290° West 151 174 13,900 -250 Descending Jacksonville Center
Sun 07:04:57 PM 29.8350 -85.0425 288° West 162 186 13,800 -50 Descending Jacksonville Center
Sun 07:05:57 PM 29.8467 -85.0883 286° West 162 186 13,800 50 Level Jacksonville Center
Sun 07:06:57 PM 29.8586 -85.1294 289° West 150 173 13,900 100 Climbing Jacksonville Center
Sun 07:07:57 PM 29.8703 -85.1753 286° West 150 173 14,000 50 Climbing Jacksonville Center
Sun 07:08:57 PM 29.8822 -85.2161 289° West 150 173 14,000  Level Jacksonville Center
Sun 07:09:57 PM 29.8939 -85.2619 286° West 150 173 14,000  Level Jacksonville Center
Sun 07:10:57 PM 29.9056 -85.3053 287° West 150 173 14,000  Level Jacksonville Center
Sun 07:11:57 PM 29.9172 -85.3511 286° West 150 173 14,000  Level Jacksonville Center
Sun 07:12:57 PM 29.9289 -85.3947 287° West 150 173 14,000  Level Jacksonville Center
Sun 07:13:57 PM 29.9406 -85.4406 286° West 150 173 14,000  Level Jacksonville Center
Sun 07:14:57 PM 29.9519 -85.4864 286° West 150 173 14,000  Level Jacksonville Center
Sun 07:15:57 PM 29.9656 -85.5369 287° West 150 173 14,000  Level Jacksonville Center
Sun 07:16:57 PM 29.9792 -85.5853 288° West 150 173 14,000  Level Jacksonville Center
Sun 07:17:57 PM 29.9908 -85.6336 286° West 156 180 14,000  Level Jacksonville Center
Sun 07:18:57 PM 30.0003 -85.6722 286° West 156 180 14,000  Level Jacksonville Center
Sun 07:19:57 PM 30.0139 -85.7256 286° West 161 185 14,000 -50 Level Jacksonville Center
Sun 07:20:57 PM 30.0253 -85.7714 286° West 161 185 13,900  Descending Jacksonville Center
Sun 07:21:57 PM 30.0367 -85.8172 286° West 161 185 14,000  Climbing Jacksonville Center
Sun 07:22:57 PM 30.0503 -85.8633 289° West 154 177 13,900  Descending Jacksonville Center
Sun 07:23:57 PM 30.0617 -85.9067 287° West 149 171 14,000 50 Climbing Jacksonville Center
Sun 07:24:57 PM 30.0753 -85.9503 290° West 149 171 14,000 -372 Level Jacksonville Center
Sun 07:26:00 PM 30.0931 -86.0046 288° West  Level Estimated
Sun 07:33:00 PM 30.2447 -86.3417 288° West  Level FlightAware Approximate
Sun 07:34:00 PM 30.2592 -86.3946 288° West  Level FlightAware Approximate
Sun 07:35:00 PM 30.2736 -86.4474 288° West  Level FlightAware Approximate
Sun 07:36:00 PM 30.2873 -86.5005 285° West  Level FlightAware Approximate
Sun 07:36:02 PM 30.2144 -86.5389 285° West 185 213 9,500  Level Jacksonville Center
Sun 07:36:39 PM 30.2236 -86.5778 285° West 187 215 9,100 -652 Descending Jacksonville Center
Sun 07:37:00 PM 30.2995 -86.5541 285° West  Level FlightAware Approximate
Sun 07:37:34 PM 30.2347 -86.6261 285° West 188 216 8,500  Level Jacksonville Center
Sun 07:38:00 PM 30.3117 -86.6077 285° West  Level FlightAware Approximate
Sun 07:38:59 PM 30.2553 -86.7111 286° West 188 216 7,600  Level Jacksonville Center
Sun 07:39:00 PM 30.3239 -86.6613 285° West  Level FlightAware Approximate
Sun 07:39:59 PM 30.2722 -86.7719 288° West 190 219 6,800  Level Jacksonville Center
Sun 07:40:00 PM 30.3361 -86.7150 285° West  Level FlightAware Approximate
Sun 07:41:00 PM 30.3483 -86.7686 285° West  Level FlightAware Approximate
Sun 07:41:00 PM 30.2956 -86.8306 295° West 201 231 6,100  Level Jacksonville Center
Sun 07:41:42 PM 30.3089 -86.8719 290° West 196 226 5,900 -550 Descending Jacksonville Center
Sun 07:42:49 PM 30.3319 -86.9356 293° West 195 224 5,100 -639 Descending Jacksonville Center
Sun 07:43:44 PM 30.3531 -86.9894 294° West 199 229 4,600 -645 Descending Jacksonville Center
Sun 07:44:50 PM 30.3761 -87.0506 294° West 195 224 3,800 -803 Descending Jacksonville Center
Sun 07:45:51 PM 30.3889 -87.1042 285° West 194 223 2,900 -738 Descending Jacksonville Center
Sun 07:46:52 PM 30.4358 -87.1350 330° Northwest 179 206 2,300 -590 Descending Jacksonville Center
Sun 07:47:53 PM 30.4789 -87.1586 335° Northwest 179 206 1,700 -836 Descending Jacksonville Center
Sun 07:48:54 PM 30.5008 -87.1958 304° West 133 153 600 -1,082 Descending Jacksonville Center
Sun 07:50:00 PM 30.4734 -87.1866 162° South  Level Estimated

Login

Don't have an account? Register now (free) for customized features, flight alerts, and more!